createdAt,value
2022-12-03T00:01:32.291Z,41.53
2022-12-03T00:04:36.754Z,34.77
2022-12-03T00:07:39.896Z,31.70
2022-12-03T00:10:43.266Z,36.30
2022-12-03T00:13:46.596Z,35.23
2022-12-03T00:16:49.698Z,36.40
2022-12-03T00:19:54.193Z,35.63
2022-12-03T00:22:57.287Z,40.30
2022-12-03T00:26:00.395Z,36.63
2022-12-03T00:29:03.548Z,35.13
2022-12-03T00:32:07.058Z,39.10
2022-12-03T00:35:11.980Z,38.33
2022-12-03T00:38:15.262Z,36.30
2022-12-03T00:41:18.412Z,41.23
2022-12-03T00:44:21.559Z,35.33
2022-12-03T00:47:24.729Z,40.03
2022-12-03T00:50:29.197Z,40.53
2022-12-03T00:53:32.477Z,42.80
2022-12-03T00:56:35.593Z,34.73
2022-12-03T00:59:38.726Z,37.53
2022-12-03T01:02:41.859Z,33.93
2022-12-03T01:05:46.326Z,41.47
2022-12-03T01:08:49.474Z,38.30
2022-12-03T01:11:52.594Z,32.13
2022-12-03T01:14:56.125Z,35.00
2022-12-03T01:17:59.337Z,37.17
2022-12-03T01:21:03.861Z,35.03
2022-12-03T01:24:07.656Z,28.10
2022-12-03T01:27:10.849Z,32.77
2022-12-03T01:30:15.130Z,34.57
2022-12-03T01:33:17.259Z,38.50
2022-12-03T01:36:21.763Z,40.27
2022-12-03T01:39:24.890Z,36.20
2022-12-03T01:42:30.785Z,29.87
2022-12-03T01:45:33.958Z,31.43
2022-12-03T01:48:38.971Z,27.50
2022-12-03T01:51:43.443Z,27.37
2022-12-03T01:54:49.137Z,30.30
2022-12-03T01:57:54.943Z,32.57
2022-12-03T02:00:59.133Z,26.50
2022-12-03T02:04:02.299Z,31.77
2022-12-03T02:07:24.510Z,30.90
2022-12-03T02:10:33.071Z,27.47
2022-12-03T02:13:37.181Z,28.67
2022-12-03T02:16:42.322Z,31.07
2022-12-03T02:19:45.564Z,34.17
2022-12-03T02:22:57.184Z,30.93
2022-12-03T02:26:01.847Z,32.93
2022-12-03T02:29:05.353Z,30.70
2022-12-03T02:32:08.600Z,34.00
2022-12-03T02:35:15.751Z,30.37
2022-12-03T02:38:21.378Z,33.43
2022-12-03T02:41:43.687Z,38.43
2022-12-03T02:44:46.909Z,38.93
2022-12-03T02:47:52.880Z,36.37
2022-12-03T02:50:58.840Z,37.20
2022-12-03T02:54:02.424Z,35.83
2022-12-03T02:57:07.303Z,37.73
2022-12-03T03:00:12.033Z,34.13
2022-12-03T03:03:15.246Z,36.93
2022-12-03T03:06:20.273Z,32.43
2022-12-03T03:09:23.568Z,32.60
2022-12-03T03:12:28.042Z,29.53
2022-12-03T03:15:31.765Z,44.43
2022-12-03T03:18:35.777Z,36.90
2022-12-03T03:21:38.936Z,39.67
2022-12-03T03:24:42.133Z,38.40
2022-12-03T03:27:46.869Z,31.90
2022-12-03T03:30:50.191Z,34.63
2022-12-03T03:33:53.356Z,35.50
2022-12-03T03:36:56.500Z,38.87
2022-12-03T03:39:59.669Z,32.60
2022-12-03T03:43:04.440Z,41.73
2022-12-03T03:46:09.285Z,45.20
2022-12-03T03:49:13.432Z,39.37
2022-12-03T03:52:16.639Z,41.43
2022-12-03T03:55:20.494Z,37.60
2022-12-03T03:58:25.034Z,38.53
2022-12-03T04:01:29.096Z,36.23
2022-12-03T04:04:37.187Z,33.03
2022-12-03T04:07:40.419Z,32.77
2022-12-03T04:11:00.820Z,38.63
2022-12-03T04:14:05.331Z,38.17
2022-12-03T04:17:08.514Z,27.87
2022-12-03T04:20:12.908Z,36.53
2022-12-03T04:23:15.016Z,43.37
2022-12-03T04:26:35.520Z,39.43
2022-12-03T04:29:40.177Z,36.03
2022-12-03T04:33:00.832Z,41.30
2022-12-03T04:36:04.036Z,32.67
2022-12-03T04:39:07.267Z,39.80
2022-12-03T04:42:10.441Z,38.73
2022-12-03T04:45:15.027Z,40.00
2022-12-03T04:48:18.249Z,38.90
2022-12-03T04:51:21.364Z,39.03
2022-12-03T04:54:24.687Z,48.27
2022-12-03T04:57:27.815Z,42.83
2022-12-03T05:00:32.272Z,39.10
2022-12-03T05:03:35.394Z,40.30
2022-12-03T05:06:38.544Z,41.80
2022-12-03T05:09:41.631Z,38.60
2022-12-03T05:12:44.745Z,33.47
2022-12-03T05:15:49.243Z,43.00
2022-12-03T05:18:52.400Z,37.90
2022-12-03T05:21:55.513Z,43.57
2022-12-03T05:24:58.610Z,41.33
2022-12-03T05:28:01.739Z,40.93
2022-12-03T05:31:06.337Z,39.27
2022-12-03T05:34:09.569Z,40.67
2022-12-03T05:37:12.683Z,39.93
2022-12-03T05:40:17.128Z,35.27
2022-12-03T05:43:19.342Z,37.70
2022-12-03T05:46:23.967Z,37.90
2022-12-03T05:49:27.607Z,40.37
2022-12-03T05:52:30.820Z,43.23
2022-12-03T05:55:34.076Z,40.17
2022-12-03T05:58:37.424Z,42.83
2022-12-03T06:01:41.885Z,40.67
2022-12-03T06:04:44.984Z,41.17
2022-12-03T06:07:48.432Z,44.87
2022-12-03T06:10:51.621Z,42.80
2022-12-03T06:13:54.718Z,51.97
2022-12-03T06:16:59.396Z,53.37
2022-12-03T06:20:02.650Z,47.17
2022-12-03T06:23:05.782Z,48.97
2022-12-03T06:26:08.908Z,34.10
2022-12-03T06:29:12.215Z,45.97
2022-12-03T06:32:16.798Z,43.33
2022-12-03T06:35:19.905Z,51.70
2022-12-03T06:38:23.422Z,45.67
2022-12-03T06:41:26.551Z,44.30
2022-12-03T06:44:29.638Z,35.80
2022-12-03T06:47:34.091Z,36.53
2022-12-03T06:50:37.203Z,39.73
2022-12-03T06:53:40.323Z,39.43
2022-12-03T06:56:45.486Z,37.47
2022-12-03T06:59:48.842Z,37.17
2022-12-03T07:02:53.352Z,39.30
2022-12-03T07:05:56.675Z,40.43
2022-12-03T07:08:59.789Z,33.93
2022-12-03T07:12:02.898Z,35.33
2022-12-03T07:15:07.136Z,36.00
2022-12-03T07:18:11.618Z,37.37
2022-12-03T07:21:14.757Z,36.90
2022-12-03T07:24:17.875Z,36.90
2022-12-03T07:27:20.999Z,38.70
2022-12-03T07:30:25.709Z,46.17
2022-12-03T07:33:30.424Z,32.60
2022-12-03T07:36:33.539Z,30.23
2022-12-03T07:39:36.744Z,31.60
2022-12-03T07:42:39.838Z,36.43
2022-12-03T07:45:42.928Z,38.00
2022-12-03T07:48:47.425Z,32.53
2022-12-03T07:51:54.222Z,37.40
2022-12-03T07:54:57.328Z,38.37
2022-12-03T07:58:00.473Z,30.30
2022-12-03T08:01:03.680Z,32.03
2022-12-03T08:04:08.509Z,33.03
2022-12-03T08:07:11.670Z,29.10
2022-12-03T08:10:14.922Z,33.77
2022-12-03T08:13:19.800Z,29.20
2022-12-03T08:16:24.067Z,31.73
2022-12-03T08:19:28.639Z,30.23
2022-12-03T08:22:31.758Z,31.30
2022-12-03T08:25:35.320Z,34.17
2022-12-03T08:28:38.441Z,34.20
2022-12-03T08:31:42.056Z,34.57
2022-12-03T08:34:46.664Z,33.93
2022-12-03T08:37:56.808Z,33.60
2022-12-03T08:40:59.921Z,34.80
2022-12-03T08:44:12.211Z,36.00
2022-12-03T08:47:20.293Z,32.77
2022-12-03T08:50:29.783Z,33.00
2022-12-03T08:53:38.282Z,30.80
2022-12-03T08:56:43.980Z,32.07
2022-12-03T08:59:48.200Z,30.90
2022-12-03T09:02:54.316Z,28.23
2022-12-03T09:05:58.953Z,35.73
2022-12-03T09:09:06.520Z,34.10
2022-12-03T09:12:10.101Z,26.77
2022-12-03T09:15:13.417Z,31.53
2022-12-03T09:18:16.665Z,30.33
2022-12-03T09:21:21.151Z,24.47
2022-12-03T09:24:24.625Z,35.27
2022-12-03T09:27:27.772Z,34.30
2022-12-03T09:30:30.965Z,26.40
2022-12-03T09:33:34.081Z,29.03
2022-12-03T09:36:38.570Z,27.53
2022-12-03T09:39:41.742Z,33.30
2022-12-03T09:42:44.898Z,26.77
2022-12-03T09:45:48.830Z,28.83
2022-12-03T09:48:52.132Z,26.77
2022-12-03T09:51:57.832Z,29.50
2022-12-03T09:55:01.820Z,28.40
2022-12-03T09:58:12.921Z,26.27
2022-12-03T10:01:17.110Z,34.87
2022-12-03T10:04:20.632Z,28.60
2022-12-03T10:07:26.942Z,30.50
2022-12-03T10:10:30.150Z,28.17
2022-12-03T10:13:34.633Z,32.97
2022-12-03T10:16:40.317Z,34.30
2022-12-03T10:19:44.711Z,27.07
2022-12-03T10:22:49.269Z,30.43
2022-12-03T10:25:54.459Z,30.80
2022-12-03T10:28:57.543Z,27.30
2022-12-03T10:32:03.182Z,31.93
2022-12-03T10:35:12.966Z,30.37
2022-12-03T10:38:23.397Z,30.37
2022-12-03T10:41:28.723Z,32.37
2022-12-03T10:44:31.840Z,27.63
2022-12-03T10:47:35.212Z,31.63
2022-12-03T10:50:38.829Z,35.03
2022-12-03T10:53:43.485Z,32.70
2022-12-03T10:56:48.399Z,33.20
2022-12-03T10:59:51.706Z,39.97
2022-12-03T11:02:57.026Z,36.30
2022-12-03T11:06:02.956Z,32.97
2022-12-03T11:09:18.104Z,33.47
2022-12-03T11:12:23.550Z,38.50
2022-12-03T11:15:43.689Z,32.70
2022-12-03T11:19:01.224Z,37.77
2022-12-03T11:22:41.842Z,33.20
2022-12-03T11:25:51.473Z,31.23
2022-12-03T11:28:55.950Z,27.10
2022-12-03T11:31:59.052Z,28.00
2022-12-03T11:35:02.180Z,29.73
2022-12-03T11:38:53.035Z,29.57
2022-12-03T11:42:38.680Z,32.73
2022-12-03T11:45:41.846Z,32.63
2022-12-03T11:49:01.231Z,31.83
2022-12-03T11:52:21.829Z,34.60
2022-12-03T11:55:30.258Z,25.60
2022-12-03T11:58:35.976Z,31.07
2022-12-03T12:01:40.599Z,27.30
2022-12-03T12:04:47.596Z,30.97
2022-12-03T12:07:51.912Z,26.07
2022-12-03T12:10:55.083Z,25.33
2022-12-03T12:14:00.402Z,24.50
2022-12-03T12:17:05.081Z,27.17
2022-12-03T12:20:26.261Z,27.77
2022-12-03T12:23:30.356Z,23.27
2022-12-03T12:26:33.512Z,25.90
2022-12-03T12:29:39.650Z,23.10
2022-12-03T12:32:47.237Z,26.13
2022-12-03T12:35:50.671Z,28.63
2022-12-03T12:38:53.812Z,29.90
2022-12-03T12:41:56.996Z,26.03
2022-12-03T12:45:10.475Z,26.50
2022-12-03T12:48:21.065Z,27.87
2022-12-03T12:51:25.024Z,28.60
2022-12-03T12:54:28.186Z,23.20
2022-12-03T12:57:31.290Z,27.23
2022-12-03T13:00:35.962Z,26.10
2022-12-03T13:03:40.597Z,28.40
2022-12-03T13:06:43.907Z,25.57
2022-12-03T13:09:48.869Z,33.03
2022-12-03T13:12:51.999Z,26.93
2022-12-03T13:16:02.812Z,26.50
2022-12-03T13:19:20.883Z,25.43
2022-12-03T13:22:25.624Z,23.80
2022-12-03T13:29:07.363Z,26.53
2022-12-03T13:32:14.816Z,25.10
2022-12-03T13:35:27.715Z,26.17
2022-12-03T13:38:31.295Z,26.47
2022-12-03T13:41:52.351Z,31.03
2022-12-03T13:44:57.454Z,24.93
2022-12-03T13:48:03.940Z,28.03
2022-12-03T13:51:20.911Z,27.07
2022-12-03T13:54:27.606Z,29.03
2022-12-03T13:57:30.740Z,23.50
2022-12-03T14:00:33.873Z,28.23
2022-12-03T14:03:38.363Z,24.50
2022-12-03T14:06:41.495Z,24.90
2022-12-03T14:09:44.622Z,26.40
2022-12-03T14:12:47.768Z,28.83
2022-12-03T14:15:50.922Z,27.93
2022-12-03T14:18:55.412Z,26.47
2022-12-03T14:21:58.528Z,24.67
2022-12-03T14:25:01.635Z,25.53
2022-12-03T14:28:08.686Z,32.27
2022-12-03T14:31:11.996Z,26.77
2022-12-03T14:34:16.663Z,24.33
2022-12-03T14:37:19.901Z,30.67
2022-12-03T14:40:23.264Z,35.03
2022-12-03T14:43:26.429Z,27.53
2022-12-03T14:46:29.645Z,27.83
2022-12-03T14:49:34.231Z,24.50
2022-12-03T14:52:38.518Z,27.30
2022-12-03T14:55:41.613Z,23.27
2022-12-03T14:58:44.754Z,23.57
2022-12-03T15:01:47.891Z,26.17
2022-12-03T15:04:52.457Z,26.10
2022-12-03T15:07:55.713Z,25.30
2022-12-03T15:10:59.005Z,28.20
2022-12-03T15:14:02.352Z,24.83
2022-12-03T15:17:05.586Z,27.17
2022-12-03T15:20:12.364Z,26.97
2022-12-03T15:23:15.843Z,26.00
2022-12-03T15:26:19.038Z,24.53
2022-12-03T15:29:22.495Z,26.00
2022-12-03T15:32:25.633Z,28.83
2022-12-03T15:35:30.510Z,24.00
2022-12-03T15:38:34.640Z,21.43
2022-12-03T15:41:38.894Z,27.60
2022-12-03T15:44:42.112Z,22.83
2022-12-03T15:47:45.295Z,25.77
2022-12-03T15:50:50.344Z,24.13
2022-12-03T15:53:54.125Z,33.23
2022-12-03T15:56:57.977Z,31.57
2022-12-03T16:00:01.916Z,27.30
2022-12-03T16:03:05.299Z,26.13
2022-12-03T16:06:10.712Z,29.23
2022-12-03T16:09:14.147Z,28.03
2022-12-03T16:12:17.540Z,26.60
2022-12-03T16:15:26.701Z,24.87
2022-12-03T16:18:30.827Z,25.47
2022-12-03T16:21:35.775Z,27.40
2022-12-03T16:24:39.929Z,26.50
2022-12-03T16:27:43.929Z,25.67
2022-12-03T16:30:47.663Z,27.53
2022-12-03T16:33:51.712Z,28.40
2022-12-03T16:36:56.673Z,30.27
2022-12-03T16:40:00.525Z,27.10
2022-12-03T16:43:04.911Z,28.00
2022-12-03T16:46:21.438Z,29.70
2022-12-03T16:49:25.074Z,29.37
2022-12-03T16:52:30.806Z,26.23
2022-12-03T16:55:34.009Z,30.03
2022-12-03T16:58:37.583Z,30.87
2022-12-03T17:01:41.715Z,26.83
2022-12-03T17:04:45.591Z,26.93
2022-12-03T17:07:50.844Z,22.30
2022-12-03T17:10:54.465Z,25.90
2022-12-03T17:13:58.215Z,27.60
2022-12-03T17:17:01.455Z,25.93
2022-12-03T17:20:06.232Z,25.00
2022-12-03T17:23:12.293Z,26.20
2022-12-03T17:26:16.720Z,26.50
2022-12-03T17:29:20.220Z,30.83
2022-12-03T17:32:23.333Z,29.47
2022-12-03T17:35:27.154Z,29.53
2022-12-03T17:38:37.277Z,27.70
2022-12-03T17:41:42.534Z,36.57
2022-12-03T17:44:45.894Z,30.03
2022-12-03T17:47:49.781Z,30.60
2022-12-03T17:50:55.664Z,36.40
2022-12-03T17:54:00.653Z,31.03
2022-12-03T17:57:04.507Z,30.70
2022-12-03T18:00:09.817Z,27.17
2022-12-03T18:03:12.993Z,34.20
2022-12-03T18:06:16.450Z,25.97
2022-12-03T18:09:21.777Z,30.97
2022-12-03T18:12:25.246Z,33.00
2022-12-03T18:15:28.462Z,34.93
2022-12-03T18:18:31.916Z,31.70
2022-12-03T18:21:36.244Z,31.67
2022-12-03T18:24:40.823Z,32.13
2022-12-03T18:27:44.257Z,36.13
2022-12-03T18:30:52.532Z,37.00
2022-12-03T18:33:56.820Z,30.10
2022-12-03T18:37:01.160Z,35.47
2022-12-03T18:40:12.795Z,32.67
2022-12-03T18:43:18.052Z,31.33
2022-12-03T18:46:51.945Z,29.70
2022-12-03T18:49:46.619Z,33.87
2022-12-03T18:52:50.637Z,35.20
2022-12-03T18:55:56.743Z,39.27
2022-12-03T18:59:00.645Z,34.23
2022-12-03T19:02:05.015Z,40.87
2022-12-03T19:05:09.759Z,33.07
2022-12-03T19:08:15.859Z,34.97
2022-12-03T19:11:22.294Z,26.30
2022-12-03T19:14:26.423Z,24.43
2022-12-03T19:17:31.060Z,30.93
2022-12-03T19:20:35.013Z,31.97
2022-12-03T19:23:40.944Z,38.53
2022-12-03T19:26:47.618Z,30.77
2022-12-03T19:29:53.384Z,31.80
2022-12-03T19:32:59.539Z,37.33
2022-12-03T19:36:05.405Z,29.33
2022-12-03T19:39:09.842Z,30.53
2022-12-03T19:42:23.783Z,28.97
2022-12-03T19:45:29.268Z,30.70
2022-12-03T19:48:35.068Z,28.40
2022-12-03T19:51:40.255Z,30.73
2022-12-03T19:54:45.814Z,32.83
2022-12-03T19:57:51.139Z,34.43
2022-12-03T20:01:03.639Z,34.87
2022-12-03T20:04:08.729Z,27.43
2022-12-03T20:07:13.636Z,29.40
2022-12-03T20:10:18.442Z,29.70
2022-12-03T20:13:24.581Z,27.40
2022-12-03T20:16:30.878Z,30.83
2022-12-03T20:19:36.546Z,38.13
2022-12-03T20:22:40.921Z,33.30
2022-12-03T20:25:45.944Z,31.90
2022-12-03T20:28:54.232Z,28.50
2022-12-03T20:32:01.210Z,33.77
2022-12-03T20:35:10.700Z,28.53
2022-12-03T20:38:15.470Z,32.77
2022-12-03T20:41:20.751Z,28.47
2022-12-03T20:44:26.187Z,29.50
2022-12-03T20:47:30.134Z,32.53
2022-12-03T20:50:34.960Z,30.80
2022-12-03T20:53:39.561Z,30.80
2022-12-03T20:56:44.295Z,33.47
2022-12-03T20:59:49.891Z,33.67
2022-12-03T21:02:53.844Z,29.87
2022-12-03T21:06:02.012Z,32.80
2022-12-03T21:09:07.875Z,29.53
2022-12-03T21:12:11.792Z,35.23
2022-12-03T21:15:17.387Z,24.00
2022-12-03T21:18:21.391Z,28.10
2022-12-03T21:21:25.007Z,26.03
2022-12-03T21:24:28.156Z,27.93
2022-12-03T21:27:32.014Z,28.93
2022-12-03T21:30:39.712Z,30.30
2022-12-03T21:33:43.329Z,30.23
2022-12-03T21:36:46.500Z,24.20
2022-12-03T21:39:50.060Z,30.77
2022-12-03T21:42:54.284Z,28.53
2022-12-03T21:46:01.311Z,33.70
2022-12-03T21:49:04.992Z,28.60
2022-12-03T21:52:09.083Z,27.93
2022-12-03T21:55:13.045Z,27.77
2022-12-03T21:58:18.690Z,27.67
2022-12-03T22:01:25.922Z,24.63
2022-12-03T22:04:29.482Z,22.80
2022-12-03T22:07:35.158Z,29.23
2022-12-03T22:10:38.633Z,38.63
2022-12-03T22:13:42.639Z,27.97
2022-12-03T22:16:47.125Z,32.97
2022-12-03T22:19:50.265Z,28.90
2022-12-03T22:22:53.371Z,27.33
2022-12-03T22:26:00.558Z,27.30
2022-12-03T22:29:03.656Z,26.73
2022-12-03T22:32:08.255Z,27.33
2022-12-03T22:35:11.512Z,25.83
2022-12-03T22:38:14.628Z,29.43
2022-12-03T22:41:18.194Z,24.83
2022-12-03T22:44:21.290Z,21.63
2022-12-03T22:47:25.791Z,26.10
2022-12-03T22:50:28.865Z,24.27
2022-12-03T22:53:32.088Z,28.87
2022-12-03T22:56:35.212Z,22.87
2022-12-03T22:59:38.305Z,26.93
2022-12-03T23:02:42.827Z,26.00
2022-12-03T23:05:46.037Z,27.07
2022-12-03T23:08:49.719Z,27.13
2022-12-03T23:11:52.845Z,27.07
2022-12-03T23:14:56.235Z,27.50
2022-12-03T23:18:01.349Z,23.37
2022-12-03T23:21:04.479Z,25.23
2022-12-03T23:24:08.083Z,30.87
2022-12-03T23:27:11.221Z,28.23
2022-12-03T23:30:15.886Z,26.70
2022-12-03T23:33:20.472Z,27.67
2022-12-03T23:36:25.302Z,30.47
2022-12-03T23:39:28.460Z,26.00
2022-12-03T23:42:31.620Z,24.03
2022-12-03T23:45:35.468Z,25.93
2022-12-03T23:48:40.536Z,23.80
2022-12-03T23:51:43.768Z,24.53
2022-12-03T23:54:46.946Z,21.73
2022-12-03T23:57:50.063Z,22.40
